KHWV

Brookhaven Airport

Shirley, New York, USA
METAR KHWV 100556Z AUTO 34003KT 9SM CLR M04/M07 A3011 RMK AO2 SLP197 T10441072 11017 21044 56030
Observed Flight Rules
Dec-10 @ 05:56 UTC (33 minutes ago) Visual Flight Rules
Wind Visibility Clouds
340° at 3 knots 9 miles
  • Clear skies
Temperatures Readings
Current -4°C / 25°F
Dewpoint -7°C / 19°F
Humidity 80%
Altimeter 30.11" Hg
Pressure 1019.7 hPa
Elevation 21
METAR KHWV 100556Z AUTO 34003KT 9SM CLR M04/M07 A3011 RMK AO2 SLP197 T10441072 11017 21044 56030
Observed Flight Rules
Dec-10 @ 05:56 UTC
(33 minutes ago)
VFR
Wind Visibility
340° at 3 knots 9 miles
Clouds
  • Clear skies
Temperature Dewpoint
-4°C / 25°F -7°C / 19°F
Humidity Altimeter Pressure
80% 30.11" Hg 1019.7 hPa